F/V Evann Emma — FGUH — position and weather

sailwx.info

Track history (hours):
 
Tides and Currents Weather Stations Pressure Air Temp Water Temp Dewpoint Dewpoint Depression Visibility Wind Speed Wind Dir Waves Ship Positions

F/V Evann Emma

Last reported at 2018-May-25 16:07 UTC. Time now 2018-May-25 18:42 UTC.
Position N 48°05' W 005°11'.

Length 20 m.

Type: Fishing. MMSI: 227904000.

Date/timePositionNaut miles runAvg speedWind from/ knotsBaromVisibWave heightAir tempDewpointWater temp
2018-May-25 16:07N 48°05' W 005°11'2 9.3
2018-May-25 15:54N 48°06' W 005°08'4 9.4
2018-May-25 15:29N 48°06' W 005°02'5 9.7
2018-May-25 15:01N 48°06' W 004°56'5 9.4
2018-May-25 14:31N 48°06' W 004°48'5 9.3
2018-May-25 14:00N 48°07' W 004°42'5 9.5
2018-May-25 13:30N 48°07' W 004°34'5 9.4
2018-May-25 13:01N 48°08' W 004°27'5 9.2
2018-May-25 12:30N 48°07' W 004°20'2 2.2
2018-May-25 11:48N 48°06' W 004°20'0 0.1
2018-May-25 11:11N 48°06' W 004°20'0 0.0
2018-May-25 10:59N 48°06' W 004°20'0 0.0
2018-May-25 09:35N 48°06' W 004°20'0 0.0
2018-May-25 07:01N 48°06' W 004°20'0 0.0
2018-May-25 06:49N 48°06' W 004°20'0 0.0
2018-May-25 06:21N 48°06' W 004°20'0 0.0
2018-May-25 05:59N 48°06' W 004°20'0 0.0
2018-May-25 05:30N 48°06' W 004°20'0 0.0
2018-May-25 05:00N 48°06' W 004°20'0 0.0
2018-May-25 03:47N 48°06' W 004°20'0 0.0
2018-May-25 02:54N 48°06' W 004°20'0 0.0
2018-May-25 01:18N 48°06' W 004°20'1 2.5
2018-May-25 01:00N 48°07' W 004°19'4 8.8
2018-May-25 00:31N 48°08' W 004°26'5 9.5
2018-May-25 00:00N 48°07' W 004°33'5 9.7
2018-May-24 23:30N 48°07' W 004°40'510.3
2018-May-24 23:00N 48°06' W 004°48'5 9.7
2018-May-24 22:30N 48°06' W 004°55'5 9.7
2018-May-24 21:57N 48°06' W 005°03'61 1.5
2018-May-23 04:27N 47°16' W 005°54'1 1.4
2018-May-23 04:00N 47°16' W 005°55'1 1.8
2018-May-23 03:30N 47°16' W 005°56'1 2.2
2018-May-23 02:59N 47°16' W 005°58'1 1.9
2018-May-23 02:30N 47°16' W 005°56'1 2.2
2018-May-23 01:53N 47°15' W 005°58'26 0.7
2018-May-21 11:58N 47°32' W 006°27'2 2.0
2018-May-21 10:53N 47°30' W 006°29'6 5.2
2018-May-21 09:49N 47°35' W 006°25'2 7.6
2018-May-21 09:30N 47°34' W 006°27'4 7.1
2018-May-21 08:58N 47°30' W 006°30'2 1.8
2018-May-21 08:03N 47°31' W 006°28'0 2.8
2018-May-21 07:58N 47°31' W 006°27'1 1.9
2018-May-21 07:28N 47°31' W 006°26'1 2.3
2018-May-21 07:00N 47°32' W 006°25'1 2.0
2018-May-21 06:29N 47°33' W 006°24'1 2.3
2018-May-21 05:59N 47°34' W 006°23'2 4.0
2018-May-21 05:31N 47°34' W 006°26'2 0.7
2018-May-21 02:59N 47°32' W 006°24'1 2.5
2018-May-21 02:27N 47°33' W 006°23'1 1.2
2018-May-21 01:41N 47°33' W 006°22'1 2.0
2018-May-21 01:18N 47°33' W 006°22'1 1.8
2018-May-21 01:01N 47°32' W 006°22'1 1.1
2018-May-21 00:30N 47°32' W 006°22'1 1.1
2018-May-21 00:01N 47°31' W 006°23'1 1.5
2018-May-20 23:31N 47°31' W 006°24'1 1.7
2018-May-20 23:01N 47°30' W 006°25'1 1.3
2018-May-20 22:30N 47°31' W 006°24'2 3.4
2018-May-20 22:00N 47°32' W 006°22'0 1.0
2018-May-20 21:30N 47°32' W 006°21'2 2.3
2018-May-20 20:29N 47°30' W 006°24'1 1.4
2018-May-20 19:34N 47°31' W 006°23'1 1.1
2018-May-20 19:01N 47°32' W 006°22'0 3.9
2018-May-20 18:54N 47°31' W 006°22'2 0.4
2018-May-20 13:59N 47°33' W 006°22'2 1.9
2018-May-20 12:48N 47°31' W 006°24'3 2.1
2018-May-20 11:33N 47°30' W 006°27'1 1.6
2018-May-20 10:44N 47°31' W 006°28'2 1.1
2018-May-20 08:43N 47°29' W 006°26'2 2.3
2018-May-20 07:58N 47°30' W 006°24'2 2.1
2018-May-20 06:53N 47°32' W 006°22'3 2.3
2018-May-20 05:38N 47°31' W 006°26'3 0.4
2018-May-19 20:33N 47°28' W 006°24'5 0.3
2018-May-19 06:48N 47°32' W 006°19'6 3.6
2018-May-19 05:12N 47°35' W 006°12'3 7.8
2018-May-19 04:49N 47°37' W 006°09'3 7.7
2018-May-19 04:29N 47°39' W 006°06'4 8.0
2018-May-19 04:00N 47°41' W 006°02'4 7.9
2018-May-19 03:31N 47°43' W 005°57'4 8.2
2018-May-19 03:00N 47°46' W 005°52'11 8.7
2018-May-19 01:43N 47°51' W 005°38'2 8.4
2018-May-19 01:26N 47°54' W 005°37'5 9.3
2018-May-19 00:53N 47°57' W 005°31'410.0
2018-May-19 00:31N 47°59' W 005°27'610.3
2018-May-18 23:56N 48°02' W 005°19'410.2
2018-May-18 23:31N 48°05' W 005°14'610.2
2018-May-18 22:56N 48°08' W 005°07'410.0
2018-May-18 22:30N 48°10' W 005°01'5 9.8
2018-May-18 22:01N 48°13' W 004°56'5 9.4
2018-May-18 21:30N 48°16' W 004°49'5 9.9
2018-May-18 21:01N 48°18' W 004°43'510.7
2018-May-18 20:30N 48°20' W 004°36'510.1
2018-May-18 20:00N 48°23' W 004°29'0 0.3
2018-May-18 19:31N 48°23' W 004°29'0 0.0
2018-May-18 19:00N 48°23' W 004°29'0 0.0
2018-May-18 18:30N 48°23' W 004°29'0 0.0
2018-May-18 18:01N 48°23' W 004°29'0 0.0
2018-May-17 13:49N 48°23' W 004°29'0 0.0
2018-May-17 13:30N 48°23' W 004°29'  
Track history (hours):
 
Tides and Currents Weather Stations Pressure Air Temp Water Temp Dewpoint Dewpoint Depression Visibility Wind Speed Wind Dir Waves Ship Positions

F/V Evann Emma

Last reported at 2018-May-25 16:07 UTC. Time now 2018-May-25 18:42 UTC.
Position N 48°05' W 005°11'.

Length 20 m.

Type: Fishing. MMSI: 227904000.

Date/timePositionNaut miles runAvg speedWind from/ knotsBaromVisibWave heightAir tempDewpointWater temp
2018-May-25 16:07N 48°05' W 005°11'2 9.3
2018-May-25 15:54N 48°06' W 005°08'4 9.4
2018-May-25 15:29N 48°06' W 005°02'5 9.7
2018-May-25 15:01N 48°06' W 004°56'5 9.4
2018-May-25 14:31N 48°06' W 004°48'5 9.3
2018-May-25 14:00N 48°07' W 004°42'5 9.5
2018-May-25 13:30N 48°07' W 004°34'5 9.4
2018-May-25 13:01N 48°08' W 004°27'5 9.2
2018-May-25 12:30N 48°07' W 004°20'2 2.2
2018-May-25 11:48N 48°06' W 004°20'0 0.1
2018-May-25 11:11N 48°06' W 004°20'0 0.0
2018-May-25 10:59N 48°06' W 004°20'0 0.0
2018-May-25 09:35N 48°06' W 004°20'0 0.0
2018-May-25 07:01N 48°06' W 004°20'0 0.0
2018-May-25 06:49N 48°06' W 004°20'0 0.0
2018-May-25 06:21N 48°06' W 004°20'0 0.0
2018-May-25 05:59N 48°06' W 004°20'0 0.0
2018-May-25 05:30N 48°06' W 004°20'0 0.0
2018-May-25 05:00N 48°06' W 004°20'0 0.0
2018-May-25 03:47N 48°06' W 004°20'0 0.0
2018-May-25 02:54N 48°06' W 004°20'0 0.0
2018-May-25 01:18N 48°06' W 004°20'1 2.5
2018-May-25 01:00N 48°07' W 004°19'4 8.8
2018-May-25 00:31N 48°08' W 004°26'5 9.5
2018-May-25 00:00N 48°07' W 004°33'5 9.7
2018-May-24 23:30N 48°07' W 004°40'510.3
2018-May-24 23:00N 48°06' W 004°48'5 9.7
2018-May-24 22:30N 48°06' W 004°55'5 9.7
2018-May-24 21:57N 48°06' W 005°03'61 1.5
2018-May-23 04:27N 47°16' W 005°54'1 1.4
2018-May-23 04:00N 47°16' W 005°55'1 1.8
2018-May-23 03:30N 47°16' W 005°56'1 2.2
2018-May-23 02:59N 47°16' W 005°58'1 1.9
2018-May-23 02:30N 47°16' W 005°56'1 2.2
2018-May-23 01:53N 47°15' W 005°58'26 0.7
2018-May-21 11:58N 47°32' W 006°27'2 2.0
2018-May-21 10:53N 47°30' W 006°29'6 5.2
2018-May-21 09:49N 47°35' W 006°25'2 7.6
2018-May-21 09:30N 47°34' W 006°27'4 7.1
2018-May-21 08:58N 47°30' W 006°30'2 1.8
2018-May-21 08:03N 47°31' W 006°28'0 2.8
2018-May-21 07:58N 47°31' W 006°27'1 1.9
2018-May-21 07:28N 47°31' W 006°26'1 2.3
2018-May-21 07:00N 47°32' W 006°25'1 2.0
2018-May-21 06:29N 47°33' W 006°24'1 2.3
2018-May-21 05:59N 47°34' W 006°23'2 4.0
2018-May-21 05:31N 47°34' W 006°26'2 0.7
2018-May-21 02:59N 47°32' W 006°24'1 2.5
2018-May-21 02:27N 47°33' W 006°23'1 1.2
2018-May-21 01:41N 47°33' W 006°22'1 2.0
2018-May-21 01:18N 47°33' W 006°22'1 1.8
2018-May-21 01:01N 47°32' W 006°22'1 1.1
2018-May-21 00:30N 47°32' W 006°22'1 1.1
2018-May-21 00:01N 47°31' W 006°23'1 1.5
2018-May-20 23:31N 47°31' W 006°24'1 1.7
2018-May-20 23:01N 47°30' W 006°25'1 1.3
2018-May-20 22:30N 47°31' W 006°24'2 3.4
2018-May-20 22:00N 47°32' W 006°22'0 1.0
2018-May-20 21:30N 47°32' W 006°21'2 2.3
2018-May-20 20:29N 47°30' W 006°24'1 1.4
2018-May-20 19:34N 47°31' W 006°23'1 1.1
2018-May-20 19:01N 47°32' W 006°22'0 3.9
2018-May-20 18:54N 47°31' W 006°22'2 0.4
2018-May-20 13:59N 47°33' W 006°22'2 1.9
2018-May-20 12:48N 47°31' W 006°24'3 2.1
2018-May-20 11:33N 47°30' W 006°27'1 1.6
2018-May-20 10:44N 47°31' W 006°28'2 1.1
2018-May-20 08:43N 47°29' W 006°26'2 2.3
2018-May-20 07:58N 47°30' W 006°24'2 2.1
2018-May-20 06:53N 47°32' W 006°22'3 2.3
2018-May-20 05:38N 47°31' W 006°26'3 0.4
2018-May-19 20:33N 47°28' W 006°24'5 0.3
2018-May-19 06:48N 47°32' W 006°19'6 3.6
2018-May-19 05:12N 47°35' W 006°12'3 7.8
2018-May-19 04:49N 47°37' W 006°09'3 7.7
2018-May-19 04:29N 47°39' W 006°06'4 8.0
2018-May-19 04:00N 47°41' W 006°02'4 7.9
2018-May-19 03:31N 47°43' W 005°57'4 8.2
2018-May-19 03:00N 47°46' W 005°52'11 8.7
2018-May-19 01:43N 47°51' W 005°38'2 8.4
2018-May-19 01:26N 47°54' W 005°37'5 9.3
2018-May-19 00:53N 47°57' W 005°31'410.0
2018-May-19 00:31N 47°59' W 005°27'610.3
2018-May-18 23:56N 48°02' W 005°19'410.2
2018-May-18 23:31N 48°05' W 005°14'610.2
2018-May-18 22:56N 48°08' W 005°07'410.0
2018-May-18 22:30N 48°10' W 005°01'5 9.8
2018-May-18 22:01N 48°13' W 004°56'5 9.4
2018-May-18 21:30N 48°16' W 004°49'5 9.9
2018-May-18 21:01N 48°18' W 004°43'510.7
2018-May-18 20:30N 48°20' W 004°36'510.1
2018-May-18 20:00N 48°23' W 004°29'0 0.3
2018-May-18 19:31N 48°23' W 004°29'0 0.0
2018-May-18 19:00N 48°23' W 004°29'0 0.0
2018-May-18 18:30N 48°23' W 004°29'0 0.0
2018-May-18 18:01N 48°23' W 004°29'0 0.0
2018-May-17 13:49N 48°23' W 004°29'0 0.0
2018-May-17 13:30N 48°23' W 004°29'  

Dump ship's entire track history